createdAt,value
2019-03-25T00:01:16.557Z,9.20
2019-03-25T00:04:05.786Z,9.10
2019-03-25T00:06:53.842Z,9.10
2019-03-25T00:09:42.717Z,9.00
2019-03-25T00:12:30.889Z,8.80
2019-03-25T00:15:19.344Z,8.70
2019-03-25T00:18:07.534Z,8.70
2019-03-25T00:20:55.836Z,8.70
2019-03-25T00:23:44.106Z,8.70
2019-03-25T00:26:32.831Z,8.60
2019-03-25T00:29:20.553Z,8.50
2019-03-25T00:32:08.779Z,8.50
2019-03-25T00:34:56.705Z,8.50
2019-03-25T00:37:45.224Z,8.60
2019-03-25T00:40:33.297Z,8.60
2019-03-25T00:43:21.244Z,8.70
2019-03-25T00:46:09.830Z,8.70
2019-03-25T00:48:58.427Z,8.70
2019-03-25T00:51:46.459Z,8.70
2019-03-25T00:57:22.765Z,8.50
2019-03-25T01:00:11.590Z,8.30
2019-03-25T01:02:59.920Z,8.30
2019-03-25T01:05:48.566Z,8.30
2019-03-25T01:08:36.453Z,8.30
2019-03-25T01:11:25.134Z,8.40
2019-03-25T01:14:13.491Z,8.50
2019-03-25T01:17:02.096Z,8.30
2019-03-25T01:19:50.698Z,8.20
2019-03-25T01:22:38.890Z,8.20
2019-03-25T01:25:28.090Z,8.20
2019-03-25T01:28:16.344Z,8.20
2019-03-25T01:31:05.194Z,8.10
2019-03-25T01:33:53.877Z,8.10
2019-03-25T01:36:42.273Z,8.20
2019-03-25T01:39:30.197Z,8.30
2019-03-25T01:42:18.346Z,8.40
2019-03-25T01:45:06.991Z,8.50
2019-03-25T01:47:55.512Z,8.50
2019-03-25T01:50:43.874Z,8.60
2019-03-25T01:53:32.063Z,8.70
2019-03-25T01:56:20.892Z,8.70
2019-03-25T01:59:08.992Z,8.80
2019-03-25T02:01:57.509Z,8.80
2019-03-25T02:04:45.844Z,8.80
2019-03-25T02:07:33.874Z,8.80
2019-03-25T02:10:22.215Z,8.80
2019-03-25T02:13:10.368Z,8.80
2019-03-25T02:15:58.272Z,8.90
2019-03-25T02:18:46.480Z,8.90
2019-03-25T02:21:34.781Z,8.90
2019-03-25T02:24:23.311Z,8.90
2019-03-25T02:27:11.689Z,8.90
2019-03-25T02:29:59.820Z,9.00
2019-03-25T02:32:48.030Z,9.00
2019-03-25T02:35:36.321Z,9.00
2019-03-25T02:38:24.670Z,8.90
2019-03-25T02:41:12.998Z,8.90
2019-03-25T02:44:01.159Z,8.80
2019-03-25T02:46:49.461Z,8.80
2019-03-25T02:49:38.234Z,8.70
2019-03-25T02:52:26.473Z,8.50
2019-03-25T02:55:14.415Z,8.50
2019-03-25T02:58:03.032Z,8.50
2019-03-25T03:00:51.748Z,8.50
2019-03-25T03:03:40.481Z,8.60
2019-03-25T03:06:29.142Z,8.60
2019-03-25T03:09:17.705Z,8.70
2019-03-25T03:12:06.166Z,8.70
2019-03-25T03:14:54.545Z,8.70
2019-03-25T03:17:43.015Z,8.70
2019-03-25T03:20:31.460Z,8.70
2019-03-25T03:23:20.161Z,8.70
2019-03-25T03:26:08.493Z,8.60
2019-03-25T03:28:56.528Z,8.50
2019-03-25T03:31:44.691Z,8.50
2019-03-25T03:34:32.907Z,8.60
2019-03-25T03:37:21.005Z,8.50
2019-03-25T03:40:09.726Z,8.40
2019-03-25T03:42:58.810Z,8.30
2019-03-25T03:45:47.415Z,8.30
2019-03-25T03:48:35.894Z,8.20
2019-03-25T03:51:23.749Z,8.10
2019-03-25T03:54:12.475Z,8.10
2019-03-25T03:57:00.896Z,8.10
2019-03-25T03:59:49.275Z,8.10
2019-03-25T04:02:37.860Z,8.00
2019-03-25T04:05:26.068Z,8.00
2019-03-25T04:08:14.317Z,8.10
2019-03-25T04:11:03.016Z,8.10
2019-03-25T04:13:51.434Z,8.00
2019-03-25T04:16:39.661Z,7.90
2019-03-25T04:19:27.725Z,8.00
2019-03-25T04:22:16.010Z,8.10
2019-03-25T04:25:04.848Z,8.10
2019-03-25T04:27:53.331Z,8.00
2019-03-25T04:30:41.748Z,8.10
2019-03-25T04:33:29.885Z,8.10
2019-03-25T04:36:17.948Z,8.00
2019-03-25T04:39:07.601Z,8.00
2019-03-25T04:41:56.001Z,8.00
2019-03-25T04:44:44.425Z,8.10
2019-03-25T04:47:32.312Z,8.10
2019-03-25T04:50:20.832Z,8.10
2019-03-25T04:53:08.808Z,8.10
2019-03-25T04:55:56.945Z,8.10
2019-03-25T04:58:45.669Z,8.10
2019-03-25T05:01:33.841Z,8.00
2019-03-25T05:04:22.552Z,8.00
2019-03-25T05:07:11.084Z,8.00
2019-03-25T05:09:59.098Z,8.00
2019-03-25T05:12:47.240Z,8.10
2019-03-25T05:15:35.710Z,8.00
2019-03-25T05:18:23.926Z,8.00
2019-03-25T05:21:12.081Z,7.90
2019-03-25T05:24:00.209Z,7.80
2019-03-25T05:26:51.307Z,7.70
2019-03-25T05:29:38.800Z,7.70
2019-03-25T05:32:27.334Z,7.70
2019-03-25T05:35:15.134Z,7.70
2019-03-25T05:38:03.604Z,7.70
2019-03-25T05:40:51.887Z,7.70
2019-03-25T05:43:40.548Z,7.70
2019-03-25T05:46:29.017Z,7.70
2019-03-25T05:49:17.881Z,7.70
2019-03-25T05:52:06.804Z,7.70
2019-03-25T05:54:55.309Z,7.70
2019-03-25T05:57:43.618Z,7.70
2019-03-25T06:00:34.373Z,7.60
2019-03-25T06:03:22.882Z,7.70
2019-03-25T06:06:11.382Z,7.60
2019-03-25T06:08:59.227Z,7.60
2019-03-25T06:11:48.261Z,7.60
2019-03-25T06:14:36.966Z,7.70
2019-03-25T06:17:25.097Z,7.80
2019-03-25T06:20:13.406Z,7.80
2019-03-25T06:23:01.530Z,7.80
2019-03-25T06:25:49.834Z,7.70
2019-03-25T06:28:37.810Z,7.70
2019-03-25T06:31:26.112Z,7.60
2019-03-25T06:34:14.275Z,7.50
2019-03-25T06:37:02.923Z,7.50
2019-03-25T06:39:50.874Z,7.50
2019-03-25T06:42:39.057Z,7.50
2019-03-25T06:45:27.252Z,7.60
2019-03-25T06:48:15.677Z,7.50
2019-03-25T06:51:04.242Z,7.40
2019-03-25T06:53:52.297Z,7.40
2019-03-25T06:56:40.637Z,7.40
2019-03-25T06:59:29.636Z,7.30
2019-03-25T07:02:17.974Z,7.30
2019-03-25T07:05:07.015Z,7.30
2019-03-25T07:07:55.533Z,7.40
2019-03-25T07:10:43.590Z,7.30
2019-03-25T07:13:32.123Z,7.30
2019-03-25T07:16:20.017Z,7.30
2019-03-25T07:19:08.465Z,7.30
2019-03-25T07:21:56.700Z,7.30
2019-03-25T07:24:44.531Z,7.30
2019-03-25T07:27:37.064Z,7.30
2019-03-25T07:30:22.790Z,7.40
2019-03-25T07:33:11.227Z,7.30
2019-03-25T07:35:59.128Z,7.30
2019-03-25T07:38:47.310Z,7.30
2019-03-25T07:41:35.477Z,7.30
2019-03-25T07:44:23.353Z,7.30
2019-03-25T07:47:11.341Z,7.30
2019-03-25T07:49:59.857Z,7.40
2019-03-25T07:52:48.479Z,7.50
2019-03-25T07:55:37.210Z,7.50
2019-03-25T07:58:25.421Z,7.40
2019-03-25T08:01:14.432Z,7.40
2019-03-25T08:04:02.837Z,7.40
2019-03-25T08:06:51.287Z,7.40
2019-03-25T08:09:39.481Z,7.40
2019-03-25T08:12:27.730Z,7.40
2019-03-25T08:15:16.286Z,7.50
2019-03-25T08:18:05.790Z,7.40
2019-03-25T08:20:53.824Z,7.40
2019-03-25T08:23:41.648Z,7.40
2019-03-25T08:26:29.794Z,7.40
2019-03-25T08:29:18.216Z,7.40
2019-03-25T08:32:06.577Z,7.50
2019-03-25T08:34:54.775Z,7.50
2019-03-25T08:37:43.057Z,7.50
2019-03-25T08:40:31.693Z,7.40
2019-03-25T08:43:20.321Z,7.30
2019-03-25T08:46:08.229Z,7.30
2019-03-25T08:48:56.147Z,7.20
2019-03-25T08:51:44.337Z,7.10
2019-03-25T08:54:32.768Z,7.10
2019-03-25T08:57:20.723Z,7.10
2019-03-25T09:00:09.824Z,7.10
2019-03-25T09:02:58.471Z,7.00
2019-03-25T09:05:47.029Z,7.00
2019-03-25T09:08:35.339Z,7.00
2019-03-25T09:11:23.809Z,7.00
2019-03-25T09:14:12.032Z,7.00
2019-03-25T09:17:00.712Z,7.00
2019-03-25T09:19:49.373Z,6.90
2019-03-25T09:22:37.875Z,6.90
2019-03-25T09:25:26.133Z,6.90
2019-03-25T09:28:23.772Z,6.90
2019-03-25T09:31:15.891Z,6.80
2019-03-25T09:34:04.604Z,6.70
2019-03-25T09:36:52.545Z,6.60
2019-03-25T09:39:40.892Z,6.40
2019-03-25T09:42:29.019Z,6.30
2019-03-25T09:45:17.261Z,6.10
2019-03-25T09:48:05.940Z,6.00
2019-03-25T09:50:54.128Z,5.90
2019-03-25T09:53:42.210Z,5.90
2019-03-25T09:56:30.531Z,5.90
2019-03-25T09:59:18.699Z,5.90
2019-03-25T10:02:07.128Z,6.00
2019-03-25T10:07:42.656Z,6.10
2019-03-25T10:10:30.850Z,6.00
2019-03-25T10:13:18.935Z,5.90
2019-03-25T10:16:06.948Z,5.90
2019-03-25T10:18:55.313Z,6.00
2019-03-25T10:21:43.377Z,6.10
2019-03-25T10:24:31.440Z,6.20
2019-03-25T10:27:19.721Z,6.30
2019-03-25T10:30:08.288Z,6.30
2019-03-25T10:32:57.447Z,6.40
2019-03-25T10:35:45.921Z,6.50
2019-03-25T10:38:33.912Z,6.60
2019-03-25T10:41:21.994Z,6.70
2019-03-25T10:44:10.471Z,6.80
2019-03-25T10:46:58.337Z,6.80
2019-03-25T10:49:46.678Z,6.80
2019-03-25T10:52:35.150Z,6.90
2019-03-25T10:55:23.914Z,7.00
2019-03-25T10:58:12.248Z,7.00
2019-03-25T11:01:00.274Z,7.10
2019-03-25T11:03:48.443Z,7.00
2019-03-25T11:06:36.809Z,7.10
2019-03-25T11:09:25.130Z,7.20
2019-03-25T11:12:13.549Z,7.20
2019-03-25T11:15:02.022Z,7.20
2019-03-25T11:17:50.422Z,7.10
2019-03-25T11:20:39.109Z,7.00
2019-03-25T11:23:27.577Z,6.80
2019-03-25T11:26:15.927Z,6.80
2019-03-25T11:29:08.651Z,6.80
2019-03-25T11:31:54.189Z,6.80
2019-03-25T11:34:42.118Z,6.70
2019-03-25T11:37:30.325Z,6.70
2019-03-25T11:40:18.420Z,6.80
2019-03-25T11:43:06.404Z,6.70
2019-03-25T11:45:54.500Z,6.60
2019-03-25T11:48:42.689Z,6.60
2019-03-25T11:51:30.742Z,6.60
2019-03-25T11:54:18.973Z,6.50
2019-03-25T11:57:06.916Z,6.50
2019-03-25T11:59:55.484Z,6.40
2019-03-25T12:02:43.893Z,6.40
2019-03-25T12:05:31.969Z,6.30
2019-03-25T12:08:20.116Z,6.30
2019-03-25T12:11:08.316Z,6.30
2019-03-25T12:13:56.283Z,6.40
2019-03-25T12:16:44.498Z,6.50
2019-03-25T12:19:32.365Z,6.70
2019-03-25T12:22:20.704Z,6.80
2019-03-25T12:25:09.312Z,6.70
2019-03-25T12:27:57.545Z,6.70
2019-03-25T12:30:45.828Z,6.80
2019-03-25T12:33:33.884Z,6.80
2019-03-25T12:36:22.422Z,6.80
2019-03-25T12:39:10.658Z,6.80
2019-03-25T12:41:58.990Z,6.80
2019-03-25T12:44:47.384Z,6.80
2019-03-25T12:47:36.216Z,6.70
2019-03-25T12:50:24.372Z,6.80
2019-03-25T12:53:12.715Z,6.90
2019-03-25T12:56:01.346Z,6.80
2019-03-25T12:58:49.964Z,6.80
2019-03-25T13:01:38.389Z,7.00
2019-03-25T13:04:26.498Z,7.10
2019-03-25T13:07:14.869Z,7.20
2019-03-25T13:10:03.424Z,7.20
2019-03-25T13:12:51.873Z,7.30
2019-03-25T13:15:40.081Z,7.40
2019-03-25T13:18:28.452Z,7.60
2019-03-25T13:21:17.215Z,7.60
2019-03-25T13:24:05.865Z,7.70
2019-03-25T13:26:54.520Z,7.70
2019-03-25T13:29:52.132Z,7.70
2019-03-25T13:32:32.717Z,7.70
2019-03-25T13:35:21.091Z,7.70
2019-03-25T13:38:09.341Z,7.70
2019-03-25T13:40:57.993Z,7.80
2019-03-25T13:43:46.265Z,7.80
2019-03-25T13:46:34.410Z,7.70
2019-03-25T13:49:22.731Z,7.70
2019-03-25T13:52:11.147Z,7.80
2019-03-25T13:54:59.252Z,7.80
2019-03-25T13:57:47.126Z,7.90
2019-03-25T14:00:40.216Z,7.90
2019-03-25T14:03:28.355Z,8.00
2019-03-25T14:06:16.807Z,8.00
2019-03-25T14:09:07.088Z,7.90
2019-03-25T14:11:55.242Z,7.90
2019-03-25T14:14:43.468Z,7.90
2019-03-25T14:17:31.904Z,8.00
2019-03-25T14:20:20.363Z,8.00
2019-03-25T14:23:08.501Z,7.90
2019-03-25T14:25:56.246Z,7.80
2019-03-25T14:28:44.920Z,7.80
2019-03-25T14:31:32.844Z,7.70
2019-03-25T14:34:21.170Z,7.50
2019-03-25T14:37:09.370Z,7.40
2019-03-25T14:39:57.252Z,7.30
2019-03-25T14:42:45.482Z,7.10
2019-03-25T14:45:33.869Z,7.10
2019-03-25T14:48:22.036Z,7.00
2019-03-25T14:51:10.261Z,7.00
2019-03-25T14:53:58.099Z,7.00
2019-03-25T14:56:46.513Z,7.10
2019-03-25T14:59:34.357Z,7.20
2019-03-25T15:02:22.802Z,7.20
2019-03-25T15:05:11.336Z,7.40
2019-03-25T15:07:59.517Z,7.40
2019-03-25T15:10:53.499Z,7.50
2019-03-25T15:13:37.933Z,7.50
2019-03-25T15:16:26.296Z,7.50
2019-03-25T15:19:14.225Z,7.30
2019-03-25T15:22:02.793Z,6.70
2019-03-25T15:24:50.962Z,6.00
2019-03-25T15:27:39.000Z,5.60
2019-03-25T15:30:35.554Z,5.20
2019-03-25T15:33:16.500Z,4.80
2019-03-25T15:36:04.902Z,4.60
2019-03-25T15:38:52.785Z,4.40
2019-03-25T15:41:41.263Z,4.40
2019-03-25T15:44:29.161Z,4.50
2019-03-25T15:47:17.409Z,4.50
2019-03-25T15:50:06.012Z,4.50
2019-03-25T15:52:54.660Z,4.70
2019-03-25T15:55:43.018Z,4.90
2019-03-25T15:58:31.264Z,5.10
2019-03-25T16:01:19.702Z,5.10
2019-03-25T16:04:07.468Z,5.10
2019-03-25T16:06:55.602Z,5.20
2019-03-25T16:09:43.366Z,5.20
2019-03-25T16:12:32.171Z,5.20
2019-03-25T16:15:37.253Z,5.10
2019-03-25T16:18:39.192Z,5.10
2019-03-25T16:21:27.634Z,5.10
2019-03-25T16:24:15.764Z,5.00
2019-03-25T16:27:03.843Z,5.10
2019-03-25T16:29:51.749Z,5.10
2019-03-25T16:32:40.952Z,5.00
2019-03-25T16:35:29.611Z,5.00
2019-03-25T16:38:19.168Z,5.10
2019-03-25T16:41:07.798Z,5.20
2019-03-25T16:43:56.062Z,5.20
2019-03-25T16:46:44.397Z,5.30
2019-03-25T16:49:33.039Z,5.20
2019-03-25T16:52:21.417Z,5.30
2019-03-25T16:55:10.249Z,5.40
2019-03-25T16:57:58.693Z,5.50
2019-03-25T17:00:46.636Z,5.50
2019-03-25T17:03:35.299Z,5.50
2019-03-25T17:06:23.478Z,5.60
2019-03-25T17:09:11.776Z,5.80
2019-03-25T17:12:00.058Z,5.70
2019-03-25T17:14:48.034Z,5.70
2019-03-25T17:17:36.071Z,5.60
2019-03-25T17:20:24.055Z,5.50
2019-03-25T17:23:11.981Z,5.40
2019-03-25T17:26:00.318Z,5.30
2019-03-25T17:28:49.176Z,5.20
2019-03-25T17:31:37.548Z,5.20
2019-03-25T17:34:25.728Z,5.20
2019-03-25T17:37:13.968Z,5.10
2019-03-25T17:40:02.247Z,5.00
2019-03-25T17:42:50.554Z,4.90
2019-03-25T17:45:38.733Z,4.90
2019-03-25T17:48:26.691Z,5.00
2019-03-25T17:51:15.307Z,4.90
2019-03-25T17:54:03.905Z,4.90
2019-03-25T17:56:52.917Z,4.60
2019-03-25T17:59:41.317Z,4.30
2019-03-25T18:02:29.609Z,4.00
2019-03-25T18:05:18.020Z,3.90
2019-03-25T18:08:06.327Z,3.70
2019-03-25T18:10:54.282Z,3.70
2019-03-25T18:13:42.840Z,3.50
2019-03-25T18:16:31.256Z,3.30
2019-03-25T18:19:19.216Z,3.10
2019-03-25T18:22:08.172Z,3.00
2019-03-25T18:24:56.416Z,2.80
2019-03-25T18:27:44.354Z,2.70
2019-03-25T18:30:33.161Z,2.50
2019-03-25T18:33:21.559Z,2.40
2019-03-25T18:36:10.123Z,2.30
2019-03-25T18:38:58.030Z,2.20
2019-03-25T18:41:46.416Z,2.20
2019-03-25T18:44:35.000Z,2.30
2019-03-25T18:47:23.524Z,2.20
2019-03-25T18:50:12.119Z,2.20
2019-03-25T18:53:00.378Z,2.20
2019-03-25T18:55:49.071Z,2.10
2019-03-25T18:58:38.130Z,2.20
2019-03-25T19:01:26.882Z,2.30
2019-03-25T19:04:15.020Z,2.30
2019-03-25T19:07:03.127Z,2.30
2019-03-25T19:09:53.703Z,2.40
2019-03-25T19:12:42.371Z,2.50
2019-03-25T19:15:30.854Z,2.60
2019-03-25T19:18:19.585Z,2.60
2019-03-25T19:21:07.736Z,2.50
2019-03-25T19:23:56.128Z,2.50
2019-03-25T19:26:44.225Z,2.60
2019-03-25T19:29:32.365Z,2.60
2019-03-25T19:32:20.512Z,2.70
2019-03-25T19:35:09.084Z,2.90
2019-03-25T19:37:57.294Z,2.90
2019-03-25T19:40:45.858Z,2.90
2019-03-25T19:43:34.349Z,2.80
2019-03-25T19:46:22.215Z,2.70
2019-03-25T19:49:10.632Z,2.50
2019-03-25T19:51:59.138Z,2.50
2019-03-25T19:54:48.175Z,2.50
2019-03-25T19:57:36.660Z,2.50
2019-03-25T20:00:36.727Z,2.60
2019-03-25T20:03:25.073Z,2.60
2019-03-25T20:06:13.484Z,2.60
2019-03-25T20:09:02.231Z,2.60
2019-03-25T20:11:50.277Z,2.50
2019-03-25T20:14:38.572Z,2.50
2019-03-25T20:17:26.770Z,2.60
2019-03-25T20:20:15.009Z,2.70
2019-03-25T20:23:03.464Z,2.80
2019-03-25T20:25:51.701Z,2.80
2019-03-25T20:28:39.891Z,2.90
2019-03-25T20:31:27.862Z,2.90
2019-03-25T20:34:16.262Z,2.80
2019-03-25T20:37:04.183Z,2.70
2019-03-25T20:39:53.096Z,2.60
2019-03-25T20:42:41.394Z,2.50
2019-03-25T20:45:29.758Z,2.40
2019-03-25T20:48:18.140Z,2.40
2019-03-25T20:51:06.648Z,2.40
2019-03-25T20:53:54.567Z,2.40
2019-03-25T20:56:42.688Z,2.50
2019-03-25T20:59:30.735Z,2.70
2019-03-25T21:02:18.956Z,2.80
2019-03-25T21:05:07.797Z,3.00
2019-03-25T21:07:56.672Z,3.00
2019-03-25T21:10:44.780Z,3.10
2019-03-25T21:13:33.284Z,3.10
2019-03-25T21:16:21.852Z,3.20
2019-03-25T21:19:10.377Z,3.10
2019-03-25T21:21:58.860Z,3.00
2019-03-25T21:24:47.383Z,2.90
2019-03-25T21:27:35.816Z,2.90
2019-03-25T21:30:24.540Z,2.90
2019-03-25T21:33:13.161Z,2.90
2019-03-25T21:36:01.963Z,2.90
2019-03-25T21:38:50.964Z,2.90
2019-03-25T21:41:39.879Z,2.90
2019-03-25T21:44:28.043Z,2.70
2019-03-25T21:47:16.226Z,2.50
2019-03-25T21:50:04.679Z,2.50
2019-03-25T21:52:53.326Z,2.50
2019-03-25T21:55:41.796Z,2.60
2019-03-25T21:58:29.994Z,2.60
2019-03-25T22:01:18.578Z,2.60
2019-03-25T22:04:07.048Z,2.60
2019-03-25T22:06:55.169Z,2.60
2019-03-25T22:09:43.641Z,2.60
2019-03-25T22:12:31.453Z,2.60
2019-03-25T22:15:20.516Z,2.60
2019-03-25T22:18:08.553Z,2.60
2019-03-25T22:20:56.569Z,2.70
2019-03-25T22:23:44.717Z,2.80
2019-03-25T22:26:33.076Z,2.80
2019-03-25T22:29:21.325Z,2.70
2019-03-25T22:32:09.457Z,2.80
2019-03-25T22:34:58.089Z,2.80
2019-03-25T22:37:46.052Z,2.80
2019-03-25T22:40:34.615Z,2.90
2019-03-25T22:43:22.787Z,2.90
2019-03-25T22:46:10.675Z,2.90
2019-03-25T22:48:59.108Z,2.90
2019-03-25T22:51:47.292Z,3.00
2019-03-25T22:54:35.519Z,3.00
2019-03-25T22:57:24.657Z,3.00
2019-03-25T23:00:16.729Z,2.90
2019-03-25T23:03:05.142Z,3.00
2019-03-25T23:05:53.523Z,2.90
2019-03-25T23:08:41.824Z,2.80
2019-03-25T23:11:31.212Z,2.90
2019-03-25T23:14:19.347Z,2.90
2019-03-25T23:17:07.821Z,2.90
2019-03-25T23:19:55.877Z,3.00
2019-03-25T23:22:44.277Z,3.00
2019-03-25T23:25:32.444Z,3.00
2019-03-25T23:28:20.581Z,3.10
2019-03-25T23:31:08.861Z,3.10
2019-03-25T23:33:57.193Z,3.10
2019-03-25T23:36:45.788Z,3.00
2019-03-25T23:39:33.768Z,3.00
2019-03-25T23:42:22.073Z,3.00
2019-03-25T23:45:10.439Z,3.10
2019-03-25T23:47:58.606Z,3.10
2019-03-25T23:50:47.323Z,3.10
2019-03-25T23:53:35.421Z,3.10
2019-03-25T23:56:23.824Z,3.00
2019-03-25T23:59:12.279Z,3.00
